createdAt,value
2022-09-28T00:01:21.710Z,100058.44
2022-09-28T00:03:52.305Z,100038.34
2022-09-28T00:06:24.481Z,100048.78
2022-09-28T00:08:52.566Z,100042.50
2022-09-28T00:11:21.558Z,100032.53
2022-09-28T00:13:56.524Z,100041.38
2022-09-28T00:16:27.114Z,100026.59
2022-09-28T00:18:55.129Z,100026.41
2022-09-28T00:21:27.230Z,99977.22
2022-09-28T00:24:15.848Z,100025.28
2022-09-28T00:26:52.837Z,100031.06
2022-09-28T00:29:27.830Z,100026.59
2022-09-28T00:32:02.645Z,100023.34
2022-09-28T00:34:33.005Z,100030.94
2022-09-28T00:37:02.216Z,100012.56
2022-09-28T00:39:31.905Z,99968.41
2022-09-28T00:41:59.924Z,99997.13
2022-09-28T00:44:36.176Z,100012.41
2022-09-28T00:47:15.217Z,100006.91
2022-09-28T00:50:01.273Z,99937.44
2022-09-28T00:53:01.405Z,99980.16
2022-09-28T00:55:46.537Z,99936.28
2022-09-28T00:58:20.176Z,99973.72
2022-09-28T01:00:49.162Z,99940.97
2022-09-28T01:03:17.499Z,99986.44
2022-09-28T01:05:47.227Z,99937.72
2022-09-28T01:08:17.683Z,99987.00
2022-09-28T01:10:45.443Z,99949.41
2022-09-28T01:13:16.278Z,99936.56
2022-09-28T01:15:54.901Z,99909.16
2022-09-28T01:18:41.252Z,99962.59
2022-09-28T01:21:25.737Z,99963.22
2022-09-28T01:24:16.673Z,99983.75
2022-09-28T01:26:55.225Z,99979.41
2022-09-28T01:29:35.930Z,99976.56
2022-09-28T01:32:31.665Z,99978.16
2022-09-28T01:35:05.412Z,99983.63
2022-09-28T01:37:45.470Z,99947.00
2022-09-28T01:40:15.774Z,99981.25
2022-09-28T01:42:47.162Z,99973.03
2022-09-28T01:45:20.882Z,99968.81
2022-09-28T01:47:50.861Z,99892.44
2022-09-28T01:50:22.913Z,99969.13
2022-09-28T01:52:57.278Z,99927.63
2022-09-28T01:55:38.878Z,99955.63
2022-09-28T01:58:22.466Z,99908.50
2022-09-28T02:00:57.704Z,99961.56
2022-09-28T02:03:33.174Z,99949.06
2022-09-28T02:06:11.729Z,99942.41
2022-09-28T02:08:59.751Z,99927.97
2022-09-28T02:11:41.611Z,99931.16
2022-09-28T02:14:12.529Z,99902.13
2022-09-28T02:17:20.154Z,99921.16
2022-09-28T02:19:48.414Z,99899.84
2022-09-28T02:22:34.223Z,99875.72
2022-09-28T02:25:18.120Z,99916.47
2022-09-28T02:28:00.543Z,99918.41
2022-09-28T02:30:35.754Z,99907.47
2022-09-28T02:33:20.075Z,99876.78
2022-09-28T02:35:48.114Z,99877.25
2022-09-28T02:38:16.890Z,99859.56
2022-09-28T02:40:53.397Z,99893.78
2022-09-28T02:43:33.366Z,99841.78
2022-09-28T02:46:10.213Z,99881.66
2022-09-28T02:48:52.219Z,99871.53
2022-09-28T02:51:45.369Z,99878.28
2022-09-28T02:54:26.319Z,99870.38
2022-09-28T02:57:32.872Z,99872.47
2022-09-28T03:00:14.454Z,99724.06
2022-09-28T03:03:25.803Z,99852.69
2022-09-28T03:06:02.622Z,99862.84
2022-09-28T03:09:23.037Z,99808.47
2022-09-28T03:12:05.221Z,99804.25
2022-09-28T03:14:32.918Z,99838.13
2022-09-28T03:17:00.899Z,99845.94
2022-09-28T03:19:32.419Z,99753.03
2022-09-28T03:22:01.978Z,99834.97
2022-09-28T03:24:29.713Z,99854.22
2022-09-28T03:26:57.362Z,99877.69
2022-09-28T03:29:24.994Z,99824.78
2022-09-28T03:31:58.846Z,99829.91
2022-09-28T03:34:26.642Z,99845.47
2022-09-28T03:36:54.507Z,99824.97
2022-09-28T03:39:22.282Z,99874.22
2022-09-28T03:41:49.885Z,99861.50
2022-09-28T03:44:19.316Z,99740.78
2022-09-28T03:46:49.132Z,99846.13
2022-09-28T03:49:16.930Z,99824.97
2022-09-28T03:51:44.682Z,99861.03
2022-09-28T03:54:13.082Z,99850.94
2022-09-28T03:56:41.381Z,99780.38
2022-09-28T03:59:08.987Z,99827.69
2022-09-28T04:01:37.525Z,99856.69
2022-09-28T04:04:05.740Z,99796.84
2022-09-28T04:06:33.468Z,99840.47
2022-09-28T04:09:01.196Z,99838.25
2022-09-28T04:11:38.515Z,99829.91
2022-09-28T04:14:17.780Z,99792.34
2022-09-28T04:16:45.718Z,99823.41
2022-09-28T04:19:15.973Z,99834.72
2022-09-28T04:22:06.615Z,99792.81
2022-09-28T04:24:34.394Z,99821.56
2022-09-28T04:27:20.857Z,99821.47
2022-09-28T04:29:49.630Z,99832.94
2022-09-28T04:32:18.697Z,99824.22
2022-09-28T04:34:46.254Z,99825.06
2022-09-28T04:37:15.136Z,99779.19
2022-09-28T04:39:46.287Z,99794.72
2022-09-28T04:42:18.530Z,99828.78
2022-09-28T04:44:46.636Z,99785.09
2022-09-28T04:47:14.765Z,99816.41
2022-09-28T04:49:57.599Z,99741.78
2022-09-28T04:52:37.128Z,99774.78
2022-09-28T04:55:06.346Z,99781.88
2022-09-28T04:57:35.820Z,99800.25
2022-09-28T05:00:04.807Z,99757.09
2022-09-28T05:02:35.341Z,99766.41
2022-09-28T05:05:22.069Z,99793.53
2022-09-28T05:08:09.735Z,99729.25
2022-09-28T05:10:40.753Z,99736.06
2022-09-28T05:13:09.693Z,99750.81
2022-09-28T05:15:38.762Z,99776.41
2022-09-28T05:18:07.210Z,99759.47
2022-09-28T05:20:46.433Z,99759.59
2022-09-28T05:23:15.717Z,99776.75
2022-09-28T05:25:46.001Z,99769.34
2022-09-28T05:28:28.955Z,99782.97
2022-09-28T05:31:15.163Z,99782.63
2022-09-28T05:34:18.158Z,99758.66
2022-09-28T05:36:46.831Z,99763.78
2022-09-28T05:39:14.735Z,99753.72
2022-09-28T05:41:42.553Z,99721.69
2022-09-28T05:44:12.267Z,99720.03
2022-09-28T05:46:40.211Z,99766.69
2022-09-28T05:49:10.080Z,99739.13
2022-09-28T05:51:39.546Z,99757.31
2022-09-28T05:54:09.025Z,99733.88
2022-09-28T05:56:40.896Z,99713.16
2022-09-28T05:59:09.514Z,99733.16
2022-09-28T06:01:37.919Z,99721.47
2022-09-28T06:04:09.407Z,99737.56
2022-09-28T06:06:43.608Z,99679.75
2022-09-28T06:09:11.360Z,99714.88
2022-09-28T06:11:48.486Z,99735.31
2022-09-28T06:14:24.495Z,99745.97
2022-09-28T06:16:52.321Z,99740.03
2022-09-28T06:19:20.119Z,99743.03
2022-09-28T06:22:09.119Z,99758.41
2022-09-28T06:24:47.585Z,99740.06
2022-09-28T06:27:15.358Z,99748.22
2022-09-28T06:29:43.313Z,99732.34
2022-09-28T06:32:12.590Z,99772.50
2022-09-28T06:34:42.153Z,99726.28
2022-09-28T06:37:10.051Z,99775.81
2022-09-28T06:39:38.219Z,99765.34
2022-09-28T06:42:06.549Z,99725.28
2022-09-28T06:44:52.731Z,99719.66
2022-09-28T06:47:39.288Z,99703.13
2022-09-28T06:50:17.704Z,99691.47
2022-09-28T06:53:13.789Z,99750.06
2022-09-28T06:55:54.989Z,99771.56
2022-09-28T06:58:23.826Z,99762.38
2022-09-28T07:00:52.503Z,99683.22
2022-09-28T07:03:22.544Z,99773.88
2022-09-28T07:06:12.093Z,99773.88
2022-09-28T07:09:02.942Z,99787.38
2022-09-28T07:12:16.171Z,99772.63
2022-09-28T07:14:57.840Z,99773.19
2022-09-28T07:17:28.511Z,99745.06
2022-09-28T07:20:05.459Z,99784.56
2022-09-28T07:22:43.510Z,99738.63
2022-09-28T07:25:17.150Z,99786.00
2022-09-28T07:28:09.559Z,99760.19
2022-09-28T07:31:03.756Z,99788.69
2022-09-28T07:34:06.910Z,99750.00
2022-09-28T07:36:58.960Z,99806.84
2022-09-28T07:39:27.028Z,99749.66
2022-09-28T07:41:59.643Z,99784.09
2022-09-28T07:44:30.196Z,99795.63
2022-09-28T07:47:02.278Z,99815.66
2022-09-28T07:49:57.213Z,99818.06
2022-09-28T07:52:47.465Z,99767.72
2022-09-28T07:55:23.901Z,99816.50
2022-09-28T07:58:14.769Z,99803.66
2022-09-28T08:00:54.821Z,99778.28
2022-09-28T08:03:22.662Z,99797.13
2022-09-28T08:05:50.375Z,99824.28
2022-09-28T08:08:20.306Z,99834.28
2022-09-28T08:10:48.735Z,99837.44
2022-09-28T08:13:44.171Z,99842.03
2022-09-28T08:16:35.164Z,99823.34
2022-09-28T08:19:13.497Z,99831.94
2022-09-28T08:21:47.323Z,99835.03
2022-09-28T08:24:17.778Z,99840.50
2022-09-28T08:26:46.987Z,99850.00
2022-09-28T08:29:17.288Z,99831.72
2022-09-28T08:32:02.012Z,99821.16
2022-09-28T08:34:29.726Z,99814.06
2022-09-28T08:37:16.223Z,99804.25
2022-09-28T08:40:04.459Z,99804.59
2022-09-28T08:42:54.966Z,99846.00
2022-09-28T08:45:41.137Z,99850.81
2022-09-28T08:48:56.284Z,99833.97
2022-09-28T08:51:55.029Z,99850.13
2022-09-28T08:54:56.348Z,99815.47
2022-09-28T08:58:18.266Z,99855.72
2022-09-28T09:00:48.878Z,99852.88
2022-09-28T09:03:41.866Z,99847.06
2022-09-28T09:06:54.075Z,99840.44
2022-09-28T09:09:40.136Z,99836.53
2022-09-28T09:12:38.846Z,99836.25
2022-09-28T09:15:38.867Z,99843.34
2022-09-28T09:18:33.453Z,99849.94
2022-09-28T09:21:49.067Z,99843.66
2022-09-28T09:24:25.125Z,99828.41
2022-09-28T09:27:16.053Z,99829.47
2022-09-28T09:30:06.471Z,99831.88
2022-09-28T09:33:05.325Z,99822.84
2022-09-28T09:36:32.828Z,99821.25
2022-09-28T09:39:44.024Z,99814.97
2022-09-28T09:42:44.748Z,99811.44
2022-09-28T09:45:53.318Z,99693.09
2022-09-28T09:48:59.396Z,99797.09
2022-09-28T09:51:27.132Z,99810.84
2022-09-28T09:54:03.664Z,99798.84
2022-09-28T09:56:40.568Z,99791.09
2022-09-28T09:59:20.378Z,99808.25
2022-09-28T10:02:26.284Z,99793.75
2022-09-28T10:05:12.356Z,99789.06
2022-09-28T10:08:06.324Z,99774.22
2022-09-28T10:10:42.863Z,99775.81
2022-09-28T10:13:14.906Z,99745.81
2022-09-28T10:15:47.718Z,99778.56
2022-09-28T10:18:21.680Z,99782.44
2022-09-28T10:21:13.317Z,99763.00
2022-09-28T10:24:22.913Z,99772.16
2022-09-28T10:26:55.153Z,99768.75
2022-09-28T10:29:27.197Z,99730.84
2022-09-28T10:31:55.730Z,99735.38
2022-09-28T10:34:31.141Z,99733.06
2022-09-28T10:37:11.168Z,99745.44
2022-09-28T10:39:57.607Z,99703.47
2022-09-28T10:42:34.120Z,99742.03
2022-09-28T10:45:24.058Z,99740.66
2022-09-28T10:47:52.032Z,99749.50
2022-09-28T10:50:23.772Z,99716.88
2022-09-28T10:53:17.946Z,99710.06
2022-09-28T10:56:19.248Z,99714.50
2022-09-28T10:58:48.780Z,99750.88
2022-09-28T11:01:38.115Z,99710.16
2022-09-28T11:04:10.604Z,99689.03
2022-09-28T11:06:40.499Z,99738.78
2022-09-28T11:09:43.035Z,99748.94
2022-09-28T11:12:17.472Z,99662.94
2022-09-28T11:14:46.803Z,99703.19
2022-09-28T11:17:32.706Z,99724.84
2022-09-28T11:20:26.104Z,99700.94
2022-09-28T11:22:57.622Z,99722.00
2022-09-28T11:25:31.414Z,99664.84
2022-09-28T11:28:04.521Z,99724.88
2022-09-28T11:30:33.861Z,99709.22
2022-09-28T11:33:35.214Z,99693.94
2022-09-28T11:37:01.563Z,99693.22
2022-09-28T11:40:03.637Z,99660.09
2022-09-28T11:42:49.867Z,99690.50
2022-09-28T11:45:32.623Z,99678.03
2022-09-28T11:48:07.714Z,99678.84
2022-09-28T11:51:00.215Z,99666.72
2022-09-28T11:53:35.016Z,99656.38
2022-09-28T11:56:17.313Z,99667.22
2022-09-28T11:58:49.350Z,99673.50
2022-09-28T12:01:37.019Z,99668.81
2022-09-28T12:04:21.968Z,99652.47
2022-09-28T12:07:06.979Z,99645.50
2022-09-28T12:10:00.599Z,99623.69
2022-09-28T12:12:36.274Z,99597.75
2022-09-28T12:17:19.864Z,99613.63
2022-09-28T12:20:04.507Z,99619.00
2022-09-28T12:22:41.224Z,99610.53
2022-09-28T12:25:16.260Z,99608.25
2022-09-28T12:27:51.138Z,99602.41
2022-09-28T12:30:21.042Z,99548.47
2022-09-28T12:32:57.375Z,99568.97
2022-09-28T12:35:52.672Z,99581.75
2022-09-28T12:38:33.868Z,99587.25
2022-09-28T12:41:05.599Z,99583.34
2022-09-28T12:43:33.635Z,99570.88
2022-09-28T12:46:17.673Z,99558.41
2022-09-28T12:50:01.915Z,99545.19
2022-09-28T12:52:33.621Z,99539.69
2022-09-28T12:55:32.413Z,99537.38
2022-09-28T12:58:31.114Z,99531.09
2022-09-28T13:01:01.735Z,99532.69
2022-09-28T13:03:59.938Z,99500.63
2022-09-28T13:06:42.314Z,99533.50
2022-09-28T13:09:16.136Z,99521.81
2022-09-28T13:12:14.098Z,99504.03
2022-09-28T13:14:54.090Z,99529.00
2022-09-28T13:17:38.881Z,99514.94
2022-09-28T13:20:31.327Z,99479.97
2022-09-28T13:23:15.809Z,99488.97
2022-09-28T13:25:52.875Z,99503.78
2022-09-28T13:28:27.045Z,99486.97
2022-09-28T13:30:59.924Z,99502.69
2022-09-28T13:33:37.712Z,99504.28
2022-09-28T13:36:26.201Z,99495.63
2022-09-28T13:38:56.289Z,99474.97
2022-09-28T13:41:40.576Z,99458.75
2022-09-28T13:44:11.511Z,99486.34
2022-09-28T13:46:55.176Z,99482.47
2022-09-28T13:49:56.889Z,99483.25
2022-09-28T13:52:40.680Z,99472.09
2022-09-28T13:55:14.308Z,99472.03
2022-09-28T13:57:49.935Z,99465.41
2022-09-28T14:00:29.329Z,99435.50
2022-09-28T14:03:06.338Z,99447.44
2022-09-28T14:05:45.960Z,99447.06
2022-09-28T14:08:28.546Z,99405.03
2022-09-28T14:10:57.927Z,99429.81
2022-09-28T14:13:40.753Z,99436.63
2022-09-28T14:16:23.083Z,99433.91
2022-09-28T14:19:02.359Z,99427.25
2022-09-28T14:21:54.691Z,99363.84
2022-09-28T14:24:50.179Z,99430.00
2022-09-28T14:27:36.113Z,99427.63
2022-09-28T14:30:18.901Z,99418.03
2022-09-28T14:32:58.555Z,99409.72
2022-09-28T14:35:31.988Z,99428.84
2022-09-28T14:38:30.460Z,99432.81
2022-09-28T14:41:15.498Z,99437.97
2022-09-28T14:43:46.367Z,99421.50
2022-09-28T14:46:20.346Z,99417.63
2022-09-28T14:48:56.121Z,99341.53
2022-09-28T14:51:27.076Z,99409.03
2022-09-28T14:54:05.889Z,99371.59
2022-09-28T14:56:59.053Z,99373.78
2022-09-28T14:59:36.106Z,99361.03
2022-09-28T15:02:22.329Z,99374.50
2022-09-28T15:05:01.914Z,99393.78
2022-09-28T15:07:43.513Z,99396.53
2022-09-28T15:10:31.599Z,99390.69
2022-09-28T15:13:05.707Z,99390.69
2022-09-28T15:15:37.316Z,99361.22
2022-09-28T15:18:27.698Z,99382.81
2022-09-28T15:20:56.416Z,99389.09
2022-09-28T15:23:35.980Z,99357.25
2022-09-28T15:26:08.612Z,99294.56
2022-09-28T15:28:39.520Z,99335.03
2022-09-28T15:31:07.269Z,99380.34
2022-09-28T15:33:54.086Z,99383.28
2022-09-28T15:36:27.963Z,99379.69
2022-09-28T15:39:00.150Z,99367.75
2022-09-28T15:41:29.001Z,99378.91
2022-09-28T15:44:33.183Z,99375.03
2022-09-28T15:47:25.347Z,99372.28
2022-09-28T15:50:02.722Z,99379.69
2022-09-28T15:52:38.906Z,99369.56
2022-09-28T15:55:20.694Z,99369.38
2022-09-28T15:57:49.121Z,99371.47
2022-09-28T16:00:27.173Z,99375.03
2022-09-28T16:03:19.303Z,99332.63
2022-09-28T16:05:59.102Z,99362.13
2022-09-28T16:08:36.303Z,99372.28
2022-09-28T16:11:17.132Z,99356.53
2022-09-28T16:14:17.679Z,99358.47
2022-09-28T16:16:49.808Z,99362.00
2022-09-28T16:19:30.253Z,99366.34
2022-09-28T16:22:00.254Z,99335.38
2022-09-28T16:24:38.898Z,99356.16
2022-09-28T16:27:08.670Z,99356.97
2022-09-28T16:29:42.328Z,99351.47
2022-09-28T16:32:25.490Z,99356.97
2022-09-28T16:35:11.473Z,99351.03
2022-09-28T16:37:44.108Z,99314.41
2022-09-28T16:40:12.863Z,99338.47
2022-09-28T16:42:48.701Z,99335.81
2022-09-28T16:45:22.536Z,99314.41
2022-09-28T16:47:53.709Z,99294.34
2022-09-28T16:50:22.337Z,99320.97
2022-09-28T16:53:15.086Z,99346.78
2022-09-28T16:55:43.155Z,99355.00
2022-09-28T16:58:10.830Z,99327.50
2022-09-28T17:00:38.851Z,99355.47
2022-09-28T17:03:18.412Z,99297.09
2022-09-28T17:05:48.092Z,99312.56
2022-09-28T17:08:18.576Z,99341.41
2022-09-28T17:13:42.323Z,99322.38
2022-09-28T17:16:14.863Z,99358.66
2022-09-28T17:18:42.691Z,99311.75
2022-09-28T17:21:15.984Z,99338.84
2022-09-28T17:23:44.715Z,99354.31
2022-09-28T17:26:34.612Z,99325.28
2022-09-28T17:29:02.397Z,99302.41
2022-09-28T17:31:30.539Z,99349.00
2022-09-28T17:33:58.480Z,99343.13
2022-09-28T17:36:27.170Z,99339.78
2022-09-28T17:38:54.933Z,99357.22
2022-09-28T17:41:22.723Z,99343.22
2022-09-28T17:43:50.333Z,99307.06
2022-09-28T17:46:31.269Z,99342.19
2022-09-28T17:49:00.786Z,99357.22
2022-09-28T17:51:31.303Z,99343.69
2022-09-28T17:54:01.179Z,99327.69
2022-09-28T17:56:32.093Z,99333.06
2022-09-28T17:59:10.211Z,99349.19
2022-09-28T18:01:40.211Z,99324.31
2022-09-28T18:04:13.138Z,99316.34
2022-09-28T18:06:43.875Z,99348.13
2022-09-28T18:09:14.928Z,99350.59
2022-09-28T18:11:44.561Z,99308.31
2022-09-28T18:14:13.876Z,99349.53
2022-09-28T18:16:41.572Z,99360.00
2022-09-28T18:19:09.252Z,99347.75
2022-09-28T18:21:36.842Z,99348.72
2022-09-28T18:24:04.619Z,99359.09
2022-09-28T18:26:32.306Z,99359.81
2022-09-28T18:29:00.080Z,99335.38
2022-09-28T18:31:28.715Z,99355.72
2022-09-28T18:34:02.977Z,99361.66
2022-09-28T18:36:32.525Z,99353.72
2022-09-28T18:39:01.548Z,99348.72
2022-09-28T18:41:29.413Z,99359.56
2022-09-28T18:44:00.929Z,99328.66
2022-09-28T18:46:34.921Z,99354.31
2022-09-28T18:49:04.319Z,99336.19
2022-09-28T18:51:32.366Z,99353.09
2022-09-28T18:54:02.204Z,99368.13
2022-09-28T18:56:30.384Z,99367.75
2022-09-28T18:59:00.197Z,99330.34
2022-09-28T19:01:30.477Z,99366.63
2022-09-28T19:04:00.759Z,99374.41
2022-09-28T19:06:29.292Z,99358.91
2022-09-28T19:08:57.651Z,99377.06
2022-09-28T19:11:27.240Z,99388.41
2022-09-28T19:13:55.775Z,99360.78
2022-09-28T19:16:25.960Z,99334.66
2022-09-28T19:18:53.823Z,99372.91
2022-09-28T19:21:21.792Z,99387.94
2022-09-28T19:23:50.159Z,99396.53
2022-09-28T19:26:21.003Z,99389.81
2022-09-28T19:28:49.526Z,99328.56
2022-09-28T19:31:17.489Z,99331.19
2022-09-28T19:33:46.634Z,99394.88
2022-09-28T19:36:18.540Z,99377.44
2022-09-28T19:38:46.441Z,99355.34
2022-09-28T19:41:39.487Z,99397.59
2022-09-28T19:44:26.306Z,99415.66
2022-09-28T19:47:00.803Z,99408.22
2022-09-28T19:49:30.001Z,99355.50
2022-09-28T19:52:14.781Z,99415.31
2022-09-28T19:54:58.338Z,99396.53
2022-09-28T19:57:30.664Z,99372.88
2022-09-28T20:00:02.431Z,99421.50
2022-09-28T20:02:35.011Z,99420.72
2022-09-28T20:05:03.546Z,99440.63
2022-09-28T20:07:33.418Z,99377.75
2022-09-28T20:10:00.988Z,99387.41
2022-09-28T20:12:28.790Z,99392.63
2022-09-28T20:14:56.515Z,99424.06
2022-09-28T20:17:24.364Z,99443.09
2022-09-28T20:19:52.432Z,99393.69
2022-09-28T20:22:20.426Z,99403.88
2022-09-28T20:24:48.171Z,99448.84
2022-09-28T20:27:15.906Z,99436.88
2022-09-28T20:29:43.901Z,99406.47
2022-09-28T20:32:11.845Z,99399.22
2022-09-28T20:34:39.643Z,99425.28
2022-09-28T20:37:07.481Z,99446.38
2022-09-28T20:39:35.068Z,99391.63
2022-09-28T20:42:05.640Z,99385.94
2022-09-28T20:44:33.390Z,99442.31
2022-09-28T20:47:01.437Z,99402.03
2022-09-28T20:49:29.175Z,99406.56
2022-09-28T20:51:56.751Z,99456.38
2022-09-28T20:54:24.729Z,99451.22
2022-09-28T20:56:52.425Z,99422.31
2022-09-28T20:59:22.914Z,99470.41
2022-09-28T21:01:51.272Z,99483.34
2022-09-28T21:04:19.740Z,99482.53
2022-09-28T21:06:47.506Z,99477.66
2022-09-28T21:09:15.143Z,99494.66
2022-09-28T21:11:43.215Z,99506.78
2022-09-28T21:14:10.927Z,99500.31
2022-09-28T21:16:39.007Z,99501.66
2022-09-28T21:19:06.793Z,99444.66
2022-09-28T21:21:34.499Z,99469.28
2022-09-28T21:24:02.468Z,99484.41
2022-09-28T21:26:31.700Z,99474.31
2022-09-28T21:29:12.989Z,99504.91
2022-09-28T21:31:46.187Z,99516.88
2022-09-28T21:34:19.468Z,99507.38
2022-09-28T21:36:51.175Z,99492.28
2022-09-28T21:39:20.312Z,99492.13
2022-09-28T21:41:48.248Z,99481.16
2022-09-28T21:44:15.962Z,99462.00
2022-09-28T21:46:43.680Z,99500.16
2022-09-28T21:49:12.743Z,99500.94
2022-09-28T21:51:40.708Z,99491.84
2022-09-28T21:54:08.788Z,99446.47
2022-09-28T21:56:36.393Z,99469.03
2022-09-28T21:59:04.226Z,99502.09
2022-09-28T22:01:32.256Z,99476.34
2022-09-28T22:04:00.073Z,99510.69
2022-09-28T22:06:28.318Z,99516.19
2022-09-28T22:08:57.008Z,99465.44
2022-09-28T22:11:27.352Z,99498.66
2022-09-28T22:13:59.430Z,99530.94
2022-09-28T22:16:29.714Z,99522.25
2022-09-28T22:18:58.112Z,99467.88
2022-09-28T22:21:32.140Z,99522.97
2022-09-28T22:24:04.512Z,99526.88
2022-09-28T22:26:34.361Z,99498.44
2022-09-28T22:29:05.910Z,99509.53
2022-09-28T22:31:36.089Z,99515.66
2022-09-28T22:34:04.743Z,99517.84
2022-09-28T22:36:32.939Z,99540.88
2022-09-28T22:39:00.662Z,99551.75
2022-09-28T22:41:28.519Z,99525.22
2022-09-28T22:43:56.339Z,99552.09
2022-09-28T22:46:27.198Z,99540.34
2022-09-28T22:48:56.935Z,99533.06
2022-09-28T22:51:26.364Z,99527.22
2022-09-28T22:53:54.444Z,99517.63
2022-09-28T22:56:22.553Z,99537.25
2022-09-28T22:58:50.192Z,99495.19
2022-09-28T23:01:24.056Z,99496.69
2022-09-28T23:03:52.889Z,99534.38
2022-09-28T23:06:23.354Z,99517.41
2022-09-28T23:08:51.882Z,99464.13
2022-09-28T23:11:20.870Z,99485.59
2022-09-28T23:13:52.900Z,99465.41
2022-09-28T23:16:23.601Z,99508.09
2022-09-28T23:18:52.433Z,99452.63
2022-09-28T23:21:22.868Z,99508.09
2022-09-28T23:23:59.018Z,99415.34
2022-09-28T23:26:28.959Z,99483.00
2022-09-28T23:28:57.648Z,99434.78
2022-09-28T23:31:28.759Z,99484.13
2022-09-28T23:34:04.309Z,99477.06
2022-09-28T23:36:32.370Z,99489.19
2022-09-28T23:39:00.416Z,99466.47
2022-09-28T23:41:28.687Z,99459.66
2022-09-28T23:43:56.427Z,99483.69
2022-09-28T23:46:24.597Z,99473.06
2022-09-28T23:48:52.675Z,99432.50
2022-09-28T23:51:20.551Z,99459.69
2022-09-28T23:53:48.318Z,99478.44
2022-09-28T23:56:15.997Z,99453.00
2022-09-28T23:58:43.718Z,99472.53
